Bar Harbor, ME

6:38 PM EDT on July 23, 2016 (GMT -0400)
College of the Atlantic | | Change Station

Elev 52 ft 44.39 °N, 68.22 °W | Updated 22 seconds ago

Overcast
Overcast
75.4 °F
Feels Like 77 °F
N
0.0
Wind Variable Wind from SW
Gusts 2.0 mph

Today
High -- | Low -- °F
--% Chance of Precip.
Yesterday
High -- | Low -- °F
Precip. -- in
Pressure 29.72 in
Visibility 10.0 miles
Clouds Few 3500 ft
Scattered Clouds 6000 ft
Mostly Cloudy 9000 ft
Heat Index 77 °F
Dew Point 67 °F
Humidity 75%
Rainfall in
Snow Depth Not available.
5:10 AM 8:07 PM
Waning Gibbous, 82% visible
SPECI KBHB 232216Z AUTO 27005KT 10SM -RA FEW035 SCT060 BKN090 23/19 A2972 RMK AO2 TSE05 P0001
Pressure 29.72 in
Visibility 10.0 miles
Clouds Few 3500 ft
Scattered Clouds 6000 ft
Mostly Cloudy 9000 ft
Heat Index 77 °F
Dew Point 67 °F
Humidity 75%
Rainfall in
Snow Depth Not available.
5:10 AM 8:07 PM
Waning Gibbous, 82% visible
SPECI KBHB 232216Z AUTO 27005KT 10SM -RA FEW035 SCT060 BKN090 23/19 A2972 RMK AO2 TSE05 P0001

10-Day Weather Forecast

Almanac

Astronomy

Jul. 23, 2016 Rise Set
Actual Time
Civil Twilight
Nautical Twilight
Astronomical Twilight
Moon
Length of Visible Light
Length of Day
Tomorrow will be .
, % of the Moon is Illuminated

Today's Extremes

State Highs State Lows

Community

WunderPhotos

Upload Photos

1,926,946 photos uploaded!

WunderBlog® & News

Nearby

Air Quality

  Air Quality AQ Index Pollutant
Not available.

Snow Depth

Station Depth Elevation

Earthquake Activity

City Distance Mag. Time & Date
Minimum magnitude displayed is 2.5.

Coastal Water Temperatures

Place Temperature

Stations

Nearby Weather Stations

Station Location Temp. Windchill Dew Point Humidity Wind Precip. Elev Updated Type
                   

Watches & Warnings

There are currently no watches in effect.